createdAt,value
2022-10-18T00:00:13.244Z,23.90
2022-10-18T00:02:39.893Z,23.80
2022-10-18T00:05:06.627Z,23.80
2022-10-18T00:07:33.422Z,23.80
2022-10-18T00:10:00.213Z,23.80
2022-10-18T00:12:26.792Z,23.70
2022-10-18T00:14:53.384Z,23.70
2022-10-18T00:17:20.021Z,23.70
2022-10-18T00:19:46.618Z,23.70
2022-10-18T00:22:13.243Z,23.60
2022-10-18T00:24:39.891Z,23.60
2022-10-18T00:27:06.504Z,23.60
2022-10-18T00:29:33.088Z,23.60
2022-10-18T00:31:59.674Z,23.60
2022-10-18T00:34:26.239Z,23.60
2022-10-18T00:36:52.865Z,23.60
2022-10-18T00:39:19.939Z,23.50
2022-10-18T00:41:46.538Z,23.60
2022-10-18T00:44:13.163Z,23.50
2022-10-18T00:46:40.552Z,23.50
2022-10-18T00:49:27.340Z,23.50
2022-10-18T00:51:56.773Z,23.50
2022-10-18T00:54:23.361Z,23.40
2022-10-18T00:56:50.042Z,23.50
2022-10-18T00:59:16.966Z,23.40
2022-10-18T01:01:43.876Z,23.40
2022-10-18T01:04:10.722Z,23.40
2022-10-18T01:06:50.311Z,23.50
2022-10-18T01:09:23.338Z,23.70
2022-10-18T01:12:05.801Z,23.70
2022-10-18T01:14:38.409Z,23.90
2022-10-18T01:17:23.753Z,24.00
2022-10-18T01:20:07.688Z,24.20
2022-10-18T01:22:44.849Z,24.10
2022-10-18T01:25:14.382Z,24.10
2022-10-18T01:27:49.241Z,24.00
2022-10-18T01:30:31.146Z,24.00
2022-10-18T01:33:11.133Z,24.00
2022-10-18T01:35:39.344Z,23.90
2022-10-18T01:38:06.530Z,23.80
2022-10-18T01:40:33.079Z,23.80
2022-10-18T01:42:59.680Z,23.80
2022-10-18T01:45:26.252Z,23.70
2022-10-18T01:47:52.804Z,23.70
2022-10-18T01:50:27.878Z,23.70
2022-10-18T01:52:54.446Z,23.70
2022-10-18T01:55:22.516Z,23.60
2022-10-18T01:58:07.988Z,23.60
2022-10-18T02:00:44.299Z,23.60
2022-10-18T02:03:23.806Z,23.60
2022-10-18T02:05:53.108Z,23.60
2022-10-18T02:08:23.561Z,23.60
2022-10-18T02:11:09.022Z,23.50
2022-10-18T02:13:37.558Z,23.50
2022-10-18T02:16:05.229Z,23.50
2022-10-18T02:18:34.909Z,23.50
2022-10-18T02:21:01.819Z,23.50
2022-10-18T02:23:28.387Z,23.50
2022-10-18T02:25:55.169Z,23.50
2022-10-18T02:28:21.925Z,23.40
2022-10-18T02:31:08.811Z,23.50
2022-10-18T02:33:39.882Z,23.40
2022-10-18T02:36:08.911Z,23.50
2022-10-18T02:38:35.565Z,23.60
2022-10-18T02:41:02.130Z,23.70
2022-10-18T02:43:28.696Z,23.90
2022-10-18T02:45:55.244Z,24.00
2022-10-18T02:48:21.832Z,24.10
2022-10-18T02:50:48.387Z,24.20
2022-10-18T02:53:16.508Z,24.10
2022-10-18T02:55:43.082Z,24.10
2022-10-18T02:58:09.742Z,24.00
2022-10-18T03:00:36.300Z,23.90
2022-10-18T03:03:02.931Z,23.90
2022-10-18T03:05:29.492Z,23.80
2022-10-18T03:07:58.937Z,23.80
2022-10-18T03:10:25.495Z,23.70
2022-10-18T03:12:52.142Z,23.70
2022-10-18T03:15:18.711Z,23.70
2022-10-18T03:17:45.310Z,23.70
2022-10-18T03:20:11.941Z,23.70
2022-10-18T03:22:38.572Z,23.60
2022-10-18T03:25:05.203Z,23.60
2022-10-18T03:27:32.102Z,23.60
2022-10-18T03:29:59.896Z,23.60
2022-10-18T03:32:26.462Z,23.50
2022-10-18T03:34:53.011Z,23.50
2022-10-18T03:37:19.631Z,23.50
2022-10-18T03:39:46.188Z,23.50
2022-10-18T03:42:12.786Z,23.40
2022-10-18T03:44:39.413Z,23.40
2022-10-18T03:47:05.997Z,23.30
2022-10-18T03:52:00.072Z,23.30
2022-10-18T03:54:26.637Z,23.20
2022-10-18T03:56:53.200Z,23.20
2022-10-18T03:59:19.826Z,23.20
2022-10-18T04:01:46.460Z,23.10
2022-10-18T04:04:13.164Z,23.10
2022-10-18T04:06:39.755Z,23.10
2022-10-18T04:09:09.359Z,23.10
2022-10-18T04:11:36.854Z,23.00
2022-10-18T04:14:03.554Z,23.00
2022-10-18T04:16:30.236Z,23.00
2022-10-18T04:18:56.845Z,22.90
2022-10-18T04:21:23.418Z,23.00
2022-10-18T04:23:50.181Z,22.90
2022-10-18T04:26:16.890Z,22.90
2022-10-18T04:28:43.565Z,22.90
2022-10-18T04:31:10.470Z,22.90
2022-10-18T04:33:37.181Z,22.80
2022-10-18T04:36:03.826Z,22.80
2022-10-18T04:38:30.422Z,22.80
2022-10-18T04:40:57.068Z,22.80
2022-10-18T04:43:23.671Z,22.80
2022-10-18T04:45:51.169Z,22.70
2022-10-18T04:48:17.985Z,22.80
2022-10-18T04:50:45.132Z,22.90
2022-10-18T04:53:11.749Z,23.00
2022-10-18T04:55:38.333Z,23.10
2022-10-18T04:58:04.926Z,23.20
2022-10-18T05:00:33.538Z,23.30
2022-10-18T05:03:03.131Z,23.20
2022-10-18T05:05:49.619Z,23.20
2022-10-18T05:08:16.369Z,23.10
2022-10-18T05:10:42.977Z,23.10
2022-10-18T05:13:09.603Z,23.10
2022-10-18T05:15:36.206Z,23.10
2022-10-18T05:18:02.874Z,23.00
2022-10-18T05:20:29.518Z,23.00
2022-10-18T05:22:57.091Z,23.00
2022-10-18T05:25:23.906Z,23.10
2022-10-18T05:27:50.475Z,23.00
2022-10-18T05:30:17.089Z,23.00
2022-10-18T05:32:43.676Z,23.00
2022-10-18T05:35:10.282Z,23.00
2022-10-18T05:37:36.902Z,23.00
2022-10-18T05:40:03.666Z,23.00
2022-10-18T05:42:30.607Z,23.00
2022-10-18T05:44:57.520Z,23.00
2022-10-18T05:47:24.211Z,23.00
2022-10-18T05:49:50.816Z,23.00
2022-10-18T05:52:17.716Z,23.00
2022-10-18T05:54:44.307Z,23.00
2022-10-18T05:57:10.874Z,23.10
2022-10-18T05:59:37.453Z,23.10
2022-10-18T06:02:04.039Z,23.00
2022-10-18T06:04:30.646Z,23.00
2022-10-18T06:06:57.200Z,23.00
2022-10-18T06:09:23.796Z,23.00
2022-10-18T06:11:50.415Z,23.00
2022-10-18T06:14:17.011Z,23.00
2022-10-18T06:16:43.574Z,23.20
2022-10-18T06:19:10.234Z,23.00
2022-10-18T06:21:36.806Z,23.00
2022-10-18T06:24:03.407Z,23.10
2022-10-18T06:26:29.988Z,23.20
2022-10-18T06:28:56.756Z,23.30
2022-10-18T06:31:23.533Z,23.50
2022-10-18T06:33:50.589Z,23.70
2022-10-18T06:36:17.696Z,23.80
2022-10-18T06:38:44.375Z,23.80
2022-10-18T06:41:10.964Z,23.80
2022-10-18T06:43:37.586Z,23.70
2022-10-18T06:46:05.575Z,23.70
2022-10-18T06:48:32.390Z,23.60
2022-10-18T06:50:59.568Z,23.60
2022-10-18T06:53:26.748Z,23.60
2022-10-18T06:55:53.537Z,23.50
2022-10-18T06:58:20.227Z,23.40
2022-10-18T07:00:47.564Z,23.40
2022-10-18T07:03:14.306Z,23.40
2022-10-18T07:05:40.912Z,23.40
2022-10-18T07:08:07.540Z,23.30
2022-10-18T07:10:34.162Z,23.30
2022-10-18T07:13:20.105Z,23.30
2022-10-18T07:15:47.368Z,23.30
2022-10-18T07:18:13.978Z,23.30
2022-10-18T07:20:40.655Z,23.30
2022-10-18T07:23:09.046Z,23.30
2022-10-18T07:25:35.769Z,23.30
2022-10-18T07:28:02.373Z,23.30
2022-10-18T07:30:28.948Z,23.30
2022-10-18T07:32:55.567Z,23.30
2022-10-18T07:35:22.155Z,23.30
2022-10-18T07:37:48.820Z,23.30
2022-10-18T07:40:16.484Z,23.20
2022-10-18T07:42:43.088Z,23.30
2022-10-18T07:45:12.521Z,23.30
2022-10-18T07:47:39.662Z,23.20
2022-10-18T07:50:06.799Z,23.20
2022-10-18T07:52:33.412Z,23.20
2022-10-18T07:55:00.008Z,23.30
2022-10-18T07:57:26.605Z,23.20
2022-10-18T07:59:56.879Z,23.20
2022-10-18T08:02:23.819Z,23.30
2022-10-18T08:04:50.558Z,23.40
2022-10-18T08:07:17.177Z,23.50
2022-10-18T08:09:43.803Z,23.70
2022-10-18T08:12:10.417Z,23.80
2022-10-18T08:14:37.000Z,23.90
2022-10-18T08:37:11.155Z,23.60
2022-10-18T08:39:37.865Z,23.60
2022-10-18T08:42:07.521Z,23.60
2022-10-18T08:44:43.524Z,23.60
2022-10-18T08:47:17.340Z,23.60
2022-10-18T08:49:47.163Z,23.50
2022-10-18T08:52:33.069Z,23.50
2022-10-18T08:55:18.505Z,23.50
2022-10-18T08:57:45.712Z,23.50
2022-10-18T09:00:16.376Z,23.50
2022-10-18T09:02:43.042Z,23.50
2022-10-18T09:05:15.819Z,23.50
2022-10-18T09:07:42.368Z,23.40
2022-10-18T09:10:14.936Z,23.40
2022-10-18T09:12:50.456Z,23.40
2022-10-18T09:15:17.242Z,23.40
2022-10-18T09:17:49.636Z,23.40
2022-10-18T09:20:28.954Z,23.40
2022-10-18T09:22:56.660Z,23.40
2022-10-18T09:25:23.429Z,23.40
2022-10-18T09:27:51.501Z,23.40
2022-10-18T09:30:36.855Z,23.30
2022-10-18T09:33:21.371Z,23.40
2022-10-18T09:35:57.874Z,23.30
2022-10-18T09:40:58.754Z,23.60
2022-10-18T09:43:28.894Z,23.70
2022-10-18T09:45:55.559Z,23.90
2022-10-18T09:48:40.428Z,24.00
2022-10-18T09:51:12.158Z,24.10
2022-10-18T09:53:49.425Z,24.10
2022-10-18T09:56:22.356Z,24.10
2022-10-18T09:58:49.352Z,24.00
2022-10-18T10:01:16.853Z,24.00
2022-10-18T10:03:43.487Z,23.90
2022-10-18T10:06:12.890Z,23.80
2022-10-18T10:08:42.712Z,23.80
2022-10-18T10:11:27.877Z,23.70
2022-10-18T10:14:27.450Z,23.70
2022-10-18T10:17:02.442Z,23.60
2022-10-18T10:19:31.000Z,23.60
2022-10-18T10:22:05.379Z,23.60
2022-10-18T10:24:44.057Z,23.60
2022-10-18T10:27:16.502Z,23.40
2022-10-18T10:29:45.876Z,23.50
2022-10-18T10:32:13.822Z,23.60
2022-10-18T10:34:43.886Z,23.50
2022-10-18T10:37:21.783Z,23.50
2022-10-18T10:40:17.767Z,23.50
2022-10-18T10:42:51.291Z,23.50
2022-10-18T10:45:17.900Z,23.60
2022-10-18T10:47:45.640Z,23.70
2022-10-18T10:50:12.580Z,23.90
2022-10-18T10:52:40.272Z,24.00
2022-10-18T10:57:54.037Z,24.20
2022-10-18T11:00:36.459Z,24.10
2022-10-18T11:03:27.265Z,24.10
2022-10-18T11:05:55.323Z,24.00
2022-10-18T11:08:38.451Z,24.00
2022-10-18T11:11:09.498Z,23.90
2022-10-18T11:13:53.373Z,23.80
2022-10-18T11:16:39.561Z,23.80
2022-10-18T11:19:10.569Z,23.70
2022-10-18T11:21:37.137Z,23.70
2022-10-18T11:24:03.843Z,23.70
2022-10-18T11:26:42.890Z,23.70
2022-10-18T11:29:27.344Z,23.60
2022-10-18T11:32:10.447Z,23.60
2022-10-18T11:34:37.003Z,23.60
2022-10-18T11:37:39.316Z,23.60
2022-10-18T11:40:17.954Z,23.60
2022-10-18T11:42:44.599Z,23.60
2022-10-18T11:45:11.157Z,23.70
2022-10-18T11:47:37.735Z,23.80
2022-10-18T11:50:10.239Z,24.00
2022-10-18T11:52:44.621Z,24.10
2022-10-18T11:55:19.662Z,24.30
2022-10-18T11:57:49.410Z,24.20
2022-10-18T12:00:18.824Z,24.20
2022-10-18T12:02:48.309Z,24.10
2022-10-18T12:05:24.815Z,24.00
2022-10-18T12:07:51.872Z,24.00
2022-10-18T12:10:31.636Z,24.00
2022-10-18T12:13:09.020Z,23.90
2022-10-18T12:15:36.622Z,23.90
2022-10-18T12:18:10.322Z,23.80
2022-10-18T12:20:44.426Z,23.80
2022-10-18T12:23:15.996Z,23.80
2022-10-18T12:25:43.821Z,23.70
2022-10-18T12:28:30.572Z,23.70
2022-10-18T12:31:04.324Z,23.70
2022-10-18T12:33:31.512Z,23.50
2022-10-18T12:36:01.050Z,23.60
2022-10-18T12:38:29.207Z,23.60
2022-10-18T12:40:55.799Z,23.70
2022-10-18T12:43:26.486Z,23.60
2022-10-18T12:45:56.038Z,23.60
2022-10-18T12:48:28.525Z,23.80
2022-10-18T12:51:01.662Z,24.00
2022-10-18T12:53:28.245Z,24.10
2022-10-18T12:55:54.968Z,24.30
2022-10-18T12:58:23.208Z,24.20
2022-10-18T13:00:56.452Z,24.20
2022-10-18T13:03:26.779Z,24.20
2022-10-18T13:06:02.923Z,24.10
2022-10-18T13:08:35.104Z,24.00
2022-10-18T13:11:01.776Z,24.00
2022-10-18T13:13:39.754Z,23.90
2022-10-18T13:16:09.634Z,23.90
2022-10-18T13:18:59.615Z,23.80
2022-10-18T13:21:26.358Z,23.80
2022-10-18T13:24:12.979Z,23.80
2022-10-18T13:26:59.146Z,23.70
2022-10-18T13:29:52.130Z,23.70
2022-10-18T13:32:23.800Z,23.70
2022-10-18T13:34:50.535Z,23.70
2022-10-18T13:37:22.523Z,23.70
2022-10-18T13:39:50.279Z,23.70
2022-10-18T13:42:35.223Z,23.60
2022-10-18T13:45:20.548Z,23.60
2022-10-18T13:47:47.221Z,23.60
2022-10-18T13:50:43.132Z,23.60
2022-10-18T13:53:19.171Z,23.70
2022-10-18T13:55:45.753Z,23.90
2022-10-18T13:58:31.257Z,24.10
2022-10-18T14:01:14.220Z,24.20
2022-10-18T14:03:57.993Z,24.30
2022-10-18T14:06:34.788Z,24.20
2022-10-18T14:09:26.255Z,24.10
2022-10-18T14:12:29.876Z,24.10
2022-10-18T14:15:00.303Z,24.00
2022-10-18T14:17:26.901Z,24.00
2022-10-18T14:19:56.399Z,23.90
2022-10-18T14:22:24.087Z,23.80
2022-10-18T14:24:54.679Z,23.80
2022-10-18T14:27:22.229Z,23.80
2022-10-18T14:29:49.114Z,23.80
2022-10-18T14:32:26.885Z,23.70
2022-10-18T14:34:55.743Z,23.70
2022-10-18T14:37:28.973Z,23.70
2022-10-18T14:39:55.612Z,23.70
2022-10-18T14:42:22.775Z,23.70
2022-10-18T14:44:54.210Z,23.70
2022-10-18T14:47:28.667Z,23.70
2022-10-18T14:50:00.249Z,23.70
2022-10-18T14:52:30.468Z,23.80
2022-10-18T14:54:59.664Z,23.90
2022-10-18T14:57:33.541Z,24.00
2022-10-18T15:00:02.959Z,24.20
2022-10-18T15:02:30.631Z,24.30
2022-10-18T15:04:58.424Z,24.30
2022-10-18T15:07:25.873Z,24.30
2022-10-18T15:09:52.537Z,24.30
2022-10-18T15:12:19.119Z,24.20
2022-10-18T15:14:45.718Z,24.10
2022-10-18T15:17:21.049Z,24.10
2022-10-18T15:20:05.005Z,24.00
2022-10-18T15:22:33.345Z,24.00
2022-10-18T15:25:11.981Z,23.90
2022-10-18T15:27:38.846Z,23.90
2022-10-18T15:30:10.971Z,23.80
2022-10-18T15:32:37.896Z,23.80
2022-10-18T15:35:08.433Z,23.80
2022-10-18T15:37:41.744Z,23.80
2022-10-18T15:40:20.108Z,23.80
2022-10-18T15:42:46.837Z,23.70
2022-10-18T15:45:25.623Z,23.70
2022-10-18T15:48:09.233Z,23.70
2022-10-18T15:50:48.165Z,23.70
2022-10-18T15:53:20.892Z,23.70
2022-10-18T15:55:47.718Z,23.70
2022-10-18T15:58:24.457Z,23.80
2022-10-18T16:00:51.748Z,24.00
2022-10-18T16:03:18.535Z,24.10
2022-10-18T16:05:45.272Z,24.20
2022-10-18T16:08:22.079Z,24.40
2022-10-18T16:10:48.808Z,24.40
2022-10-18T16:13:15.421Z,24.30
2022-10-18T16:15:43.378Z,24.20
2022-10-18T16:18:12.159Z,24.20
2022-10-18T16:20:38.808Z,24.10
2022-10-18T16:23:09.733Z,24.10
2022-10-18T16:25:36.387Z,24.00
2022-10-18T16:28:03.157Z,24.00
2022-10-18T16:30:29.960Z,23.90
2022-10-18T16:32:56.592Z,23.90
2022-10-18T16:35:23.177Z,23.90
2022-10-18T16:37:49.757Z,23.80
2022-10-18T16:40:23.026Z,23.80
2022-10-18T16:42:49.589Z,23.80
2022-10-18T16:45:16.222Z,23.80
2022-10-18T16:47:45.448Z,23.80
2022-10-18T16:50:13.492Z,23.80
2022-10-18T16:52:40.073Z,23.70
2022-10-18T16:55:14.836Z,23.70
2022-10-18T16:57:41.595Z,23.70
2022-10-18T17:00:08.637Z,23.80
2022-10-18T17:02:35.479Z,23.90
2022-10-18T17:05:02.146Z,24.00
2022-10-18T17:07:28.781Z,24.20
2022-10-18T17:09:55.366Z,24.30
2022-10-18T17:12:21.924Z,24.40
2022-10-18T17:14:48.585Z,24.40
2022-10-18T17:17:15.139Z,24.40
2022-10-18T17:19:41.704Z,24.30
2022-10-18T17:22:08.268Z,24.30
2022-10-18T17:24:34.836Z,24.20
2022-10-18T17:27:01.709Z,24.20
2022-10-18T17:29:29.457Z,24.10
2022-10-18T17:31:56.063Z,24.10
2022-10-18T17:34:22.622Z,24.00
2022-10-18T17:36:49.527Z,24.00
2022-10-18T17:39:16.088Z,24.00
2022-10-18T17:41:42.858Z,24.00
2022-10-18T17:44:09.427Z,23.90
2022-10-18T17:46:36.245Z,23.90
2022-10-18T17:49:03.062Z,23.80
2022-10-18T17:51:29.835Z,23.80
2022-10-18T17:53:56.596Z,23.80
2022-10-18T17:56:30.561Z,23.80
2022-10-18T17:58:57.097Z,23.80
2022-10-18T18:01:23.844Z,23.80
2022-10-18T18:03:50.623Z,23.90
2022-10-18T18:06:17.240Z,24.00
2022-10-18T18:08:44.058Z,24.20
2022-10-18T18:11:10.637Z,24.30
2022-10-18T18:13:37.251Z,24.30
2022-10-18T18:16:16.671Z,24.20
2022-10-18T18:18:43.510Z,24.20
2022-10-18T18:21:10.265Z,24.10
2022-10-18T18:23:36.935Z,24.10
2022-10-18T18:26:03.552Z,24.00
2022-10-18T18:28:30.200Z,24.00
2022-10-18T18:30:56.797Z,23.90
2022-10-18T18:33:23.374Z,23.90
2022-10-18T18:35:59.432Z,23.90
2022-10-18T18:38:26.046Z,23.90
2022-10-18T18:41:21.991Z,23.80
2022-10-18T18:43:54.477Z,23.70
2022-10-18T18:46:21.610Z,23.80
2022-10-18T18:48:48.184Z,23.70
2022-10-18T18:51:17.741Z,23.70
2022-10-18T18:53:44.747Z,23.70
2022-10-18T18:56:12.734Z,23.70
2022-10-18T18:58:39.479Z,23.70
2022-10-18T19:01:10.561Z,23.80
2022-10-18T19:03:38.510Z,24.00
2022-10-18T19:06:05.480Z,24.10
2022-10-18T19:08:32.201Z,24.30
2022-10-18T19:10:58.751Z,24.40
2022-10-18T19:13:25.413Z,24.30
2022-10-18T19:15:54.520Z,24.30
2022-10-18T19:18:23.884Z,24.30
2022-10-18T19:20:50.715Z,24.10
2022-10-18T19:23:17.290Z,24.10
2022-10-18T19:25:44.250Z,24.00
2022-10-18T19:28:10.810Z,24.00
2022-10-18T19:30:37.402Z,24.00
2022-10-18T19:33:04.707Z,23.90
2022-10-18T19:35:31.356Z,24.00
2022-10-18T19:37:57.943Z,23.90
2022-10-18T19:40:24.588Z,23.80
2022-10-18T19:42:52.702Z,23.80
2022-10-18T19:45:21.958Z,23.80
2022-10-18T19:47:49.030Z,23.80
2022-10-18T19:50:15.644Z,23.70
2022-10-18T19:52:42.253Z,23.70
2022-10-18T19:55:13.257Z,23.70
2022-10-18T19:57:39.825Z,23.70
2022-10-18T20:00:09.879Z,23.70
2022-10-18T20:02:37.563Z,23.70
2022-10-18T20:05:06.864Z,23.70
2022-10-18T20:07:33.436Z,23.70
2022-10-18T20:10:00.030Z,23.70
2022-10-18T20:12:26.595Z,23.60
2022-10-18T20:14:53.149Z,23.60
2022-10-18T20:17:20.844Z,23.60
2022-10-18T20:19:47.744Z,23.60
2022-10-18T20:22:14.392Z,23.60
2022-10-18T20:24:40.962Z,23.60
2022-10-18T20:27:07.544Z,23.60
2022-10-18T20:29:35.499Z,23.60
2022-10-18T20:32:02.046Z,23.80
2022-10-18T20:34:29.162Z,24.00
2022-10-18T20:36:55.839Z,24.10
2022-10-18T20:39:22.402Z,24.20
2022-10-18T20:41:49.202Z,24.30
2022-10-18T20:44:16.957Z,24.30
2022-10-18T20:46:43.652Z,24.20
2022-10-18T20:49:11.023Z,24.10
2022-10-18T20:51:37.569Z,24.10
2022-10-18T20:54:06.272Z,24.10
2022-10-18T20:56:34.328Z,24.00
2022-10-18T20:59:01.034Z,23.90
2022-10-18T21:01:30.886Z,23.80
2022-10-18T21:03:58.116Z,23.80
2022-10-18T21:06:28.666Z,23.80
2022-10-18T21:08:55.827Z,23.80
2022-10-18T21:11:22.590Z,23.80
2022-10-18T21:13:55.977Z,23.70
2022-10-18T21:16:22.564Z,23.70
2022-10-18T21:18:49.233Z,23.70
2022-10-18T21:21:19.430Z,23.70
2022-10-18T21:23:46.343Z,23.70
2022-10-18T21:26:13.698Z,23.60
2022-10-18T21:28:40.301Z,23.60
2022-10-18T21:31:10.787Z,23.60
2022-10-18T21:33:37.337Z,23.60
2022-10-18T21:36:03.993Z,23.60
2022-10-18T21:38:30.583Z,23.60
2022-10-18T21:40:57.203Z,23.60
2022-10-18T21:43:23.813Z,23.60
2022-10-18T21:45:56.156Z,23.50
2022-10-18T21:50:54.334Z,23.50
2022-10-18T21:53:21.236Z,23.50
2022-10-18T21:55:48.330Z,23.50
2022-10-18T21:58:14.911Z,23.50
2022-10-18T22:00:41.543Z,23.60
2022-10-18T22:03:11.633Z,23.70
2022-10-18T22:05:38.206Z,23.80
2022-10-18T22:08:05.088Z,24.00
2022-10-18T22:10:31.764Z,24.10
2022-10-18T22:12:58.337Z,24.20
2022-10-18T22:15:25.012Z,24.20
2022-10-18T22:17:51.601Z,24.20
2022-10-18T22:20:18.193Z,24.10
2022-10-18T22:22:44.744Z,24.00
2022-10-18T22:25:11.369Z,24.00
2022-10-18T22:27:38.564Z,23.90
2022-10-18T22:30:05.435Z,23.80
2022-10-18T22:32:32.009Z,23.80
2022-10-18T22:34:58.598Z,23.80
2022-10-18T22:37:25.155Z,23.80
2022-10-18T22:39:51.713Z,23.70
2022-10-18T22:42:18.289Z,23.70
2022-10-18T22:44:44.850Z,23.60
2022-10-18T22:47:11.420Z,23.70
2022-10-18T22:49:37.988Z,23.60
2022-10-18T22:52:04.668Z,23.60
2022-10-18T22:54:31.284Z,23.60
2022-10-18T22:56:57.878Z,23.60
2022-10-18T22:59:24.681Z,23.60
2022-10-18T23:01:51.239Z,23.60
2022-10-18T23:04:17.832Z,23.60
2022-10-18T23:06:44.493Z,23.60
2022-10-18T23:09:11.079Z,23.60
2022-10-18T23:11:37.671Z,23.50
2022-10-18T23:14:04.704Z,23.50
2022-10-18T23:16:31.312Z,23.50
2022-10-18T23:18:58.036Z,23.50
2022-10-18T23:21:25.301Z,23.50
2022-10-18T23:23:52.043Z,23.50
2022-10-18T23:26:19.688Z,23.40
2022-10-18T23:28:46.857Z,23.40
2022-10-18T23:31:20.436Z,23.50
2022-10-18T23:33:47.459Z,23.50
2022-10-18T23:36:14.043Z,23.70
2022-10-18T23:38:40.699Z,23.80
2022-10-18T23:41:07.648Z,24.00
2022-10-18T23:43:34.233Z,24.10
2022-10-18T23:46:00.805Z,24.10
2022-10-18T23:48:27.417Z,24.10
2022-10-18T23:50:54.190Z,24.00
2022-10-18T23:53:20.838Z,24.00
2022-10-18T23:55:53.720Z,23.90
2022-10-18T23:58:20.277Z,23.90
